Time;durP1;ratioP1;P1;durP2;ratioP2;P2;SDS_P1;SDS_P2;PMS_P1;PMS_P2;Temp;Humidity;BMP_temperature;BMP_pressure;BME280_temperature;BME280_humidity;BME280_pressure;Samples;Min_cycle;Max_cycle;Signal;HPM_P1;HPM_P2
2021/03/28 00:02:34;;;;;;;33.17;27.27;;;8.70;89.00;;;;;;5066162;28;20097;-73
2021/03/28 00:05:25;;;;;;;34.95;26.42;;;8.70;88.50;;;;;;5076130;28;20425;-73
2021/03/28 00:07:56;;;;;;;34.15;25.77;;;8.60;88.70;;;;;;5077066;28;20025;-73
2021/03/28 00:10:38;;;;;;;35.42;26.25;;;8.60;89.00;;;;;;5077177;28;20095;-73
2021/03/28 00:13:14;;;;;;;44.33;28.80;;;8.50;89.30;;;;;;5077073;28;20416;-73
2021/03/28 00:15:46;;;;;;;33.30;26.50;;;8.50;88.90;;;;;;5059329;28;20025;-73
2021/03/28 00:18:22;;;;;;;44.58;26.30;;;8.50;88.90;;;;;;5059224;28;20028;-73
2021/03/28 00:20:52;;;;;;;33.85;26.25;;;8.40;89.20;;;;;;5077205;28;20024;-73
2021/03/28 00:23:28;;;;;;;38.55;28.10;;;8.40;89.30;;;;;;5077027;28;20036;-73
2021/03/28 00:26:01;;;;;;;;;;;8.30;89.40;;;;;;5077112;28;20044;-73
2021/03/28 00:28:44;;;;;;;36.33;26.25;;;8.20;89.30;;;;;;5076809;28;19904;-73
2021/03/28 00:31:25;;;;;;;37.35;26.80;;;8.30;89.60;;;;;;5076726;28;20116;-73
2021/03/28 00:34:17;;;;;;;34.67;26.00;;;8.30;89.70;;;;;;5058974;28;20048;-73
2021/03/28 00:36:46;;;;;;;40.08;28.80;;;8.40;89.70;;;;;;5045432;28;20074;-73
2021/03/28 00:39:31;;;;;;;37.75;27.42;;;8.40;90.20;;;;;;5076688;28;20025;-73
2021/03/28 00:42:20;;;;;;;42.88;28.80;;;8.40;90.80;;;;;;5076971;28;20366;-73
2021/03/28 00:44:52;;;;;;;35.70;27.50;;;8.40;91.30;;;;;;5062094;28;20298;-73
2021/03/28 00:47:26;;;;;;;36.33;28.20;;;8.50;90.60;;;;;;5076658;28;20405;-73
2021/03/28 00:50:21;;;;;;;36.08;27.85;;;8.60;90.10;;;;;;5076546;28;20417;-73
2021/03/28 00:52:54;;;;;;;36.97;28.65;;;8.60;89.90;;;;;;4988846;28;20185;-73
2021/03/28 00:55:40;;;;;;;37.67;30.10;;;8.50;90.90;;;;;;5076786;28;20020;-73
2021/03/28 00:58:29;;;;;;;42.53;30.73;;;8.50;91.80;;;;;;5076686;28;20443;-73
2021/03/28 01:01:21;;;;;;;39.25;28.95;;;8.50;91.70;;;;;;5076638;28;20028;-73
2021/03/28 01:03:57;;;;;;;36.45;28.23;;;8.60;91.00;;;;;;5076683;28;20423;-73
2021/03/28 01:06:44;;;;;;;38.47;29.00;;;8.60;90.70;;;;;;5076622;28;20040;-73
2021/03/28 01:09:13;;;;;;;40.20;30.30;;;8.60;91.90;;;;;;5076705;28;20024;-73
2021/03/28 01:12:03;;;;;;;41.90;31.15;;;8.50;92.00;;;;;;5076434;28;20055;-73
2021/03/28 01:14:50;;;;;;;36.92;30.42;;;8.50;92.00;;;;;;5076507;28;20412;-73
2021/03/28 01:17:37;;;;;;;42.67;30.48;;;8.50;92.30;;;;;;5078618;28;20412;-73
2021/03/28 01:20:18;;;;;;;40.10;30.35;;;8.50;92.70;;;;;;5080193;28;20029;-73
2021/03/28 01:23:10;;;;;;;37.78;29.30;;;8.60;91.80;;;;;;5080465;28;20027;-73
2021/03/28 01:25:59;;;;;;;37.72;28.35;;;8.70;91.40;;;;;;5075833;28;20044;-73
2021/03/28 01:28:27;;;;;;;39.10;28.58;;;8.80;90.80;;;;;;5080218;28;20099;-73
2021/03/28 01:31:00;;;;;;;35.95;27.63;;;8.80;90.20;;;;;;5080053;28;20430;-73
2021/03/28 01:33:42;;;;;;;35.88;28.45;;;8.80;90.20;;;;;;5079886;28;20028;-73
2021/03/28 01:36:28;;;;;;;35.80;28.33;;;8.80;90.20;;;;;;5079947;28;20116;-73
2021/03/28 01:39:12;;;;;;;35.97;28.45;;;8.80;90.20;;;;;;5079518;28;20041;-73
2021/03/28 01:41:43;;;;;;;39.75;29.98;;;8.80;90.10;;;;;;5080122;28;20040;-73
2021/03/28 01:44:20;;;;;;;37.33;27.80;;;8.80;90.10;;;;;;5079753;28;20025;-73
2021/03/28 01:47:04;;;;;;;38.20;28.63;;;8.80;90.20;;;;;;5079752;28;20063;-73
2021/03/28 01:50:11;;;;;;;40.90;28.95;;;8.90;90.30;;;;;;5061903;28;20032;-73
2021/03/28 01:52:58;;;;;;;38.47;28.88;;;8.90;90.30;;;;;;5079848;28;20461;-73
2021/03/28 01:55:39;;;;;;;41.10;30.45;;;9.00;90.60;;;;;;5079665;28;20059;-73
2021/03/28 01:58:24;;;;;;;35.88;27.08;;;9.00;90.90;;;;;;5079505;28;20040;-73
2021/03/28 02:01:14;;;;;;;39.38;28.17;;;9.00;90.20;;;;;;5079913;28;20336;-73
2021/03/28 02:03:45;;;;;;;36.22;27.35;;;9.10;90.50;;;;;;5079573;28;20025;-73
2021/03/28 02:06:29;;;;;;;35.22;27.35;;;9.20;90.40;;;;;;5079342;28;20127;-73
2021/03/28 02:09:00;;;;;;;36.40;27.27;;;9.30;90.00;;;;;;5079310;28;20032;-73
2021/03/28 02:11:39;;;;;;;33.85;26.92;;;9.40;89.40;;;;;;5079818;28;20104;-73
2021/03/28 02:14:20;;;;;;;31.52;25.88;;;9.50;89.20;;;;;;5079251;28;20050;-73
2021/03/28 02:16:59;;;;;;;35.17;26.73;;;9.50;89.00;;;;;;5079143;28;20409;-73
2021/03/28 02:19:37;;;;;;;36.55;26.13;;;9.50;88.80;;;;;;5079429;28;20031;-73
2021/03/28 02:22:23;;;;;;;35.70;25.23;;;9.50;88.70;;;;;;5079089;28;20032;-73
2021/03/28 02:25:14;;;;;;;35.35;27.77;;;9.60;88.40;;;;;;5061208;28;20043;-73
2021/03/28 02:27:50;;;;;;;40.13;27.40;;;9.60;88.80;;;;;;5078007;28;20090;-73
2021/03/28 02:30:32;;;;;;;33.47;26.15;;;9.60;89.00;;;;;;5078997;28;20486;-73
2021/03/28 02:33:37;;;;;;;34.40;25.75;;;9.70;88.80;;;;;;5079207;28;20045;-73
2021/03/28 02:36:21;;;;;;;33.33;26.08;;;9.70;88.60;;;;;;5068398;28;20094;-73
2021/03/28 02:39:09;;;;;;;30.13;24.98;;;9.70;88.20;;;;;;5079413;28;20032;-73
2021/03/28 02:41:47;;;;;;;36.58;27.10;;;9.80;87.80;;;;;;5078649;28;20332;-73
2021/03/28 02:44:46;;;;;;;37.60;29.17;;;9.70;87.90;;;;;;5078882;28;20371;-73
2021/03/28 02:47:38;;;;;;;35.65;26.85;;;9.60;87.30;;;;;;5078705;28;20098;-73
2021/03/28 02:50:33;;;;;;;32.67;24.75;;;9.50;87.60;;;;;;5078595;28;20051;-73
2021/03/28 02:53:23;;;;;;;31.05;24.75;;;9.60;88.20;;;;;;5078851;28;20028;-73
2021/03/28 02:56:00;;;;;;;38.15;25.50;;;9.60;87.90;;;;;;5078612;28;20067;-73
2021/03/28 02:59:02;;;;;;;30.20;24.75;;;9.70;87.80;;;;;;5078535;28;20032;-73
2021/03/28 03:01:49;;;;;;;30.88;25.15;;;9.70;87.50;;;;;;5078549;28;20024;-73
2021/03/28 03:04:29;;;;;;;35.70;25.30;;;9.70;87.30;;;;;;5078546;28;20071;-73
2021/03/28 03:07:25;;;;;;;33.85;25.73;;;9.80;86.40;;;;;;5078365;28;20025;-73
2021/03/28 03:10:11;;;;;;;39.00;26.50;;;9.80;86.30;;;;;;5060472;28;20401;-73
2021/03/28 03:12:49;;;;;;;32.33;25.02;;;9.90;86.20;;;;;;5078394;28;20020;-73
2021/03/28 03:15:31;;;;;;;35.58;26.58;;;9.90;86.40;;;;;;5078088;28;20028;-73
2021/03/28 03:18:18;;;;;;;34.10;25.70;;;9.90;86.40;;;;;;5078580;28;20159;-73
2021/03/28 03:20:57;;;;;;;32.05;24.80;;;9.80;86.10;;;;;;5060213;28;20068;-73
2021/03/28 03:23:37;;;;;;;31.85;25.42;;;9.80;86.10;;;;;;5078251;28;20028;-73
2021/03/28 03:26:28;;;;;;;37.35;25.70;;;9.70;86.70;;;;;;5077790;28;20424;-73
2021/03/28 03:29:06;;;;;;;32.13;24.45;;;9.60;86.80;;;;;;5077787;28;20031;-73
2021/03/28 03:32:10;;;;;;;32.67;24.55;;;9.60;86.90;;;;;;5077996;28;20029;-73
2021/03/28 03:35:14;;;;;;;35.17;24.52;;;9.70;87.00;;;;;;5042991;28;20067;-73
2021/03/28 03:38:01;;;;;;;34.15;25.73;;;9.60;87.00;;;;;;5077771;28;20025;-73
2021/03/28 03:40:43;;;;;;;37.53;27.25;;;9.50;87.20;;;;;;5077449;28;20298;-73
2021/03/28 03:43:31;;;;;;;38.28;26.35;;;9.40;87.40;;;;;;5077380;28;20470;-73
2021/03/28 03:46:06;;;;;;;37.13;26.90;;;9.40;87.80;;;;;;5077356;28;20035;-73
2021/03/28 03:48:56;;;;;;;38.97;29.97;;;9.30;88.30;;;;;;5077719;28;20099;-73
2021/03/28 03:51:30;;;;;;;40.55;27.70;;;9.20;88.90;;;;;;5077395;28;20024;-73
2021/03/28 03:54:54;;;;;;;35.88;28.05;;;9.20;89.20;;;;;;5059402;28;20031;-73
2021/03/28 03:57:39;;;;;;;35.72;27.15;;;9.20;89.40;;;;;;5024486;28;20037;-73
2021/03/28 04:00:29;;;;;;;38.95;29.10;;;9.20;89.70;;;;;;5077216;28;20365;-73
2021/03/28 04:03:20;;;;;;;43.60;29.75;;;9.10;89.70;;;;;;5077441;28;20321;-73
2021/03/28 04:06:04;;;;;;;37.55;28.70;;;9.10;90.40;;;;;;5077056;28;20416;-73
2021/03/28 04:08:54;;;;;;;36.80;29.75;;;9.10;90.00;;;;;;5077062;28;20028;-73
2021/03/28 04:11:28;;;;;;;35.72;27.75;;;9.10;90.20;;;;;;5077119;28;20017;-73
2021/03/28 04:14:11;;;;;;;36.70;28.15;;;9.10;89.70;;;;;;5077159;28;20036;-73
2021/03/28 04:17:03;;;;;;;37.75;29.30;;;9.20;89.80;;;;;;5077111;28;20527;-73
2021/03/28 04:19:45;;;;;;;38.97;28.23;;;9.20;89.70;;;;;;5077038;28;20082;-73
2021/03/28 04:22:48;;;;;;;37.50;29.63;;;9.20;89.60;;;;;;5077251;28;20025;-73
2021/03/28 04:25:46;;;;;;;36.60;28.23;;;9.30;89.60;;;;;;5076983;28;20036;-73
2021/03/28 04:28:30;;;;;;;34.10;26.77;;;9.30;89.40;;;;;;5037110;28;20041;-73
2021/03/28 04:30:56;;;;;;;39.63;27.75;;;9.30;89.50;;;;;;5036889;28;20025;-73
2021/03/28 04:33:56;;;;;;;38.22;28.05;;;9.40;89.20;;;;;;5036957;28;20048;-73
2021/03/28 04:36:41;;;;;;;34.33;27.52;;;9.40;89.20;;;;;;5008646;28;20044;-73
2021/03/28 04:39:28;;;;;;;35.45;27.88;;;9.40;88.90;;;;;;5037081;28;20028;-73
2021/03/28 04:42:20;;;;;;;36.63;27.02;;;9.30;89.00;;;;;;5037084;28;20139;-73
2021/03/28 04:45:16;;;;;;;34.55;26.30;;;9.20;89.30;;;;;;5036598;28;20412;-73
2021/03/28 04:48:02;;;;;;;40.75;28.27;;;9.20;89.70;;;;;;5036984;28;20057;-73
2021/03/28 04:51:04;;;;;;;38.67;30.02;;;9.10;90.10;;;;;;5036485;28;20417;-73
2021/03/28 04:53:44;;;;;;;40.17;31.25;;;9.10;90.90;;;;;;4986278;28;20034;-73
2021/03/28 04:56:12;;;;;;;39.90;32.25;;;9.10;91.00;;;;;;5036710;28;20033;-73
2021/03/28 04:59:00;;;;;;;44.38;30.17;;;9.10;91.10;;;;;;5036688;28;20298;-73
2021/03/28 05:02:02;;;;;;;37.22;27.55;;;9.10;91.00;;;;;;5036518;28;20029;-73
2021/03/28 05:04:49;;;;;;;37.05;29.33;;;9.10;90.60;;;;;;5036536;28;20163;-73
2021/03/28 05:07:17;;;;;;;41.28;29.88;;;9.10;90.80;;;;;;5036525;28;20082;-73
2021/03/28 05:09:52;;;;;;;40.67;29.55;;;9.20;91.00;;;;;;5036708;28;20417;-73
2021/03/28 05:12:43;;;;;;;39.85;29.33;;;9.20;91.00;;;;;;5036444;28;20053;-73
2021/03/28 05:15:32;;;;;;;36.28;27.25;;;9.30;90.80;;;;;;5036278;28;20509;-73
2021/03/28 05:18:27;;;;;;;35.03;26.73;;;9.40;90.20;;;;;;5036689;28;20028;-73
2021/03/28 05:21:02;;;;;;;32.17;27.40;;;9.50;89.80;;;;;;5036642;28;20053;-73
2021/03/28 05:23:36;;;;;;;36.88;28.27;;;9.50;89.70;;;;;;5036194;28;20038;-73
2021/03/28 05:26:30;;;;;;;38.63;29.08;;;9.50;89.70;;;;;;5047760;28;20052;-73
2021/03/28 05:29:11;;;;;;;35.95;28.88;;;9.50;89.80;;;;;;5065330;28;20036;-73
2021/03/28 05:32:12;;;;;;;35.85;29.08;;;9.60;89.90;;;;;;5076159;28;20405;-73
2021/03/28 05:35:16;;;;;;;34.95;26.95;;;9.60;89.80;;;;;;5076358;28;20035;-73
2021/03/28 05:37:55;;;;;;;37.38;29.33;;;9.60;89.70;;;;;;5054435;28;20033;-73
2021/03/28 05:40:45;;;;;;;40.63;29.67;;;9.60;89.70;;;;;;5076414;28;20021;-73
2021/03/28 05:43:49;;;;;;;34.90;27.55;;;9.60;90.00;;;;;;5058192;28;20035;-73
2021/03/28 05:47:02;;;;;;;34.72;28.15;;;9.50;89.10;;;;;;5075887;28;20041;-73
2021/03/28 05:50:08;;;;;;;36.80;27.67;;;9.50;88.60;;;;;;5004493;28;20038;-73
2021/03/28 05:52:53;;;;;;;32.22;24.92;;;9.50;88.30;;;;;;5076266;28;20029;-73
2021/03/28 05:55:28;;;;;;;34.03;27.05;;;9.60;87.80;;;;;;5076169;28;20043;-73
2021/03/28 05:58:12;;;;;;;31.98;26.70;;;9.70;88.20;;;;;;5076191;28;20025;-73
2021/03/28 06:01:00;;;;;;;36.50;26.85;;;9.70;88.00;;;;;;5075900;28;20401;-73
2021/03/28 06:03:44;;;;;;;32.33;26.92;;;9.80;88.20;;;;;;5058895;28;20063;-73
2021/03/28 06:06:34;;;;;;;31.92;25.13;;;9.80;87.90;;;;;;5061590;28;20033;-73
2021/03/28 06:09:37;;;;;;;32.60;25.95;;;9.70;87.00;;;;;;5079570;28;20081;-73
2021/03/28 06:12:14;;;;;;;34.50;26.02;;;9.60;88.60;;;;;;5079424;28;20024;-73
2021/03/28 06:14:59;;;;;;;36.38;26.92;;;9.60;88.80;;;;;;5079355;28;20020;-73
2021/03/28 06:17:31;;;;;;;32.97;25.90;;;9.70;88.50;;;;;;5079327;28;20039;-73
2021/03/28 06:20:30;;;;;;;33.75;23.50;;;9.70;86.30;;;;;;5079211;28;20020;-73
2021/03/28 06:23:14;;;;;;;32.53;23.20;;;9.70;84.10;;;;;;5079472;28;20435;-73
2021/03/28 06:26:04;;;;;;;26.45;22.23;;;9.70;84.30;;;;;;5078871;28;20427;-73
2021/03/28 06:28:47;;;;;;;28.15;22.55;;;9.60;84.60;;;;;;5079060;28;20029;-73
2021/03/28 06:31:36;;;;;;;42.00;24.40;;;9.50;85.60;;;;;;5079192;28;20028;-73
2021/03/28 06:34:10;;;;;;;30.27;25.42;;;9.50;85.90;;;;;;5077671;28;20033;-73
2021/03/28 06:37:10;;;;;;;28.05;23.33;;;9.40;87.20;;;;;;5061159;28;20432;-73
2021/03/28 06:39:59;;;;;;;31.27;25.30;;;9.40;87.20;;;;;;5078962;28;20028;-73
2021/03/28 06:42:43;;;;;;;35.67;25.75;;;9.50;87.00;;;;;;5079051;28;20028;-73
2021/03/28 06:45:49;;;;;;;32.28;25.65;;;9.60;86.80;;;;;;5078647;28;20078;-73
2021/03/28 06:48:30;;;;;;;38.50;26.52;;;9.80;87.60;;;;;;5060917;28;20020;-73
2021/03/28 06:51:25;;;;;;;33.85;27.25;;;9.90;87.70;;;;;;5078640;28;20409;-73
2021/03/28 06:54:18;;;;;;;31.05;26.60;;;9.90;88.10;;;;;;5078499;28;20032;-73
2021/03/28 06:57:07;;;;;;;32.60;26.10;;;10.00;88.60;;;;;;5078806;28;20404;-73
2021/03/28 06:59:51;;;;;;;36.28;27.38;;;9.90;88.70;;;;;;5078485;28;20021;-73
2021/03/28 07:02:47;;;;;;;32.53;26.17;;;10.00;88.20;;;;;;5078483;28;20361;-73
2021/03/28 07:05:26;;;;;;;36.33;25.98;;;10.20;86.70;;;;;;5060477;28;20032;-73
2021/03/28 07:08:02;;;;;;;28.85;25.42;;;10.20;87.50;;;;;;5078429;28;20028;-73
2021/03/28 07:10:31;;;;;;;30.05;24.98;;;10.30;86.50;;;;;;5078255;28;20016;-73
2021/03/28 07:13:15;;;;;;;32.95;27.23;;;10.40;86.70;;;;;;5078162;28;20020;-73
2021/03/28 07:16:11;;;;;;;36.40;26.10;;;10.60;87.60;;;;;;5078179;28;20028;-73
2021/03/28 07:19:06;;;;;;;29.70;25.30;;;10.70;86.00;;;;;;5078278;28;20090;-73
2021/03/28 07:22:02;;;;;;;28.92;24.83;;;10.90;84.00;;;;;;5060600;28;20282;-73
2021/03/28 07:24:51;;;;;;;33.63;25.92;;;11.10;84.60;;;;;;5060143;28;20420;-73
2021/03/28 07:27:41;;;;;;;36.15;26.45;;;11.10;83.50;;;;;;5077839;28;20036;-73
2021/03/28 07:30:19;;;;;;;36.40;25.98;;;11.10;84.60;;;;;;5060095;28;20039;-73
2021/03/28 07:32:57;;;;;;;32.42;26.48;;;11.20;84.20;;;;;;5078032;28;20021;-73
2021/03/28 07:35:44;;;;;;;36.08;27.88;;;11.40;84.90;;;;;;5077760;28;20078;-73
2021/03/28 07:38:52;;;;;;;35.05;26.30;;;11.60;84.40;;;;;;5077785;28;20074;-73
2021/03/28 07:41:57;;;;;;;32.20;26.73;;;11.70;82.90;;;;;;5067917;28;20040;-73
2021/03/28 07:45:03;;;;;;;37.72;26.83;;;11.80;83.50;;;;;;5047172;28;20037;-73
2021/03/28 07:47:29;;;;;;;35.95;26.17;;;11.90;83.20;;;;;;5077557;28;20050;-73
2021/03/28 07:50:13;;;;;;;40.33;28.40;;;11.80;83.30;;;;;;5077474;28;20029;-73
2021/03/28 07:53:18;;;;;;;35.00;24.08;;;11.70;83.20;;;;;;5077469;28;20025;-73
2021/03/28 07:56:25;;;;;;;30.90;23.35;;;11.70;80.70;;;;;;5077632;28;20082;-73
2021/03/28 07:59:14;;;;;;;36.67;24.15;;;11.80;79.30;;;;;;5076705;28;20040;-73
2021/03/28 08:02:05;;;;;;;30.60;22.35;;;11.80;80.40;;;;;;5077230;28;20035;-73
2021/03/28 08:04:33;;;;;;;30.35;22.42;;;11.80;82.00;;;;;;5076501;28;20035;-73
2021/03/28 08:07:08;;;;;;;30.52;23.73;;;11.70;81.50;;;;;;5077115;28;20032;-73
2021/03/28 08:09:40;;;;;;;35.22;24.00;;;11.70;81.40;;;;;;5059406;28;20024;-73
2021/03/28 08:12:11;;;;;;;34.08;24.42;;;11.60;82.60;;;;;;5077667;28;20020;-73
2021/03/28 08:15:00;;;;;;;33.45;24.23;;;11.60;81.10;;;;;;5076996;28;20343;-73
2021/03/28 08:17:53;;;;;;;33.85;24.38;;;11.60;82.50;;;;;;5077032;28;20033;-73
2021/03/28 08:20:29;;;;;;;30.60;24.73;;;11.60;83.40;;;;;;5077252;28;20285;-73
2021/03/28 08:23:21;;;;;;;33.55;23.00;;;11.70;81.50;;;;;;5077213;28;20037;-73
2021/03/28 08:26:25;;;;;;;40.38;26.23;;;11.70;80.60;;;;;;5076168;28;20059;-73
2021/03/28 08:29:18;;;;;;;29.83;24.88;;;11.70;81.60;;;;;;5076892;28;20021;-73
2021/03/28 08:32:00;;;;;;;29.10;23.98;;;11.90;80.40;;;;;;5039890;28;20040;-73
2021/03/28 08:34:44;;;;;;;29.42;23.88;;;12.00;80.60;;;;;;5076919;28;20428;-73
2021/03/28 08:37:59;;;;;;;32.22;25.15;;;12.10;81.70;;;;;;5076977;28;20103;-73
2021/03/28 08:41:09;;;;;;;31.42;24.63;;;12.20;80.50;;;;;;5050958;28;20037;-73
2021/03/28 08:44:04;;;;;;;34.28;24.95;;;12.40;80.10;;;;;;5076608;28;20027;-73
2021/03/28 08:46:57;;;;;;;29.73;24.90;;;12.60;79.10;;;;;;5076945;28;20025;-73
2021/03/28 08:50:04;;;;;;;31.45;23.42;;;12.70;79.00;;;;;;5076740;28;20100;-73
2021/03/28 08:53:17;;;;;;;29.83;22.83;;;12.80;80.30;;;;;;5037248;28;20320;-73
2021/03/28 08:56:37;;;;;;;26.27;22.95;;;13.00;78.50;;;;;;4995327;28;20054;-73
2021/03/28 08:59:08;;;;;;;28.20;22.02;;;13.10;76.70;;;;;;4975946;28;20101;-71
2021/03/28 09:01:53;;;;;;;26.73;21.10;;;13.20;77.40;;;;;;5060686;28;20036;-71
2021/03/28 09:04:47;;;;;;;28.27;22.52;;;13.30;77.60;;;;;;5058690;28;20063;-74
2021/03/28 09:07:18;;;;;;;27.17;21.15;;;13.40;74.60;;;;;;5076455;28;20320;-73
2021/03/28 09:09:46;;;;;;;29.27;21.60;;;13.60;75.50;;;;;;5076448;28;20024;-72
2021/03/28 09:12:35;;;;;;;27.20;21.45;;;13.60;76.40;;;;;;5077000;28;20032;-73
2021/03/28 09:15:20;;;;;;;27.15;20.98;;;13.90;73.20;;;;;;5076422;28;20111;-71
2021/03/28 09:17:46;;;;;;;24.90;21.23;;;13.80;73.60;;;;;;5076386;28;20032;-72
2021/03/28 09:20:28;;;;;;;32.85;22.42;;;13.80;73.20;;;;;;5076373;28;20028;-71
2021/03/28 09:23:17;;;;;;;30.67;22.02;;;13.80;74.30;;;;;;5076671;28;20428;-72
2021/03/28 09:26:28;;;;;;;26.27;20.45;;;13.90;76.30;;;;;;5075415;28;20075;-72
2021/03/28 09:29:08;;;;;;;25.30;20.58;;;13.80;75.40;;;;;;5039454;28;20090;-72
2021/03/28 09:32:12;;;;;;;28.63;21.05;;;13.90;75.60;;;;;;5076172;28;20033;-72
2021/03/28 09:34:55;;;;;;;29.52;20.98;;;14.00;74.70;;;;;;5076099;28;20017;-72
2021/03/28 09:37:36;;;;;;;27.98;21.23;;;14.00;77.00;;;;;;5076940;28;20032;-71
2021/03/28 09:40:02;;;;;;;25.15;19.95;;;14.00;74.60;;;;;;5079994;28;20028;-72
2021/03/28 09:42:49;;;;;;;26.02;19.50;;;14.00;75.90;;;;;;5080424;28;20024;-72
2021/03/28 09:45:38;;;;;;;23.10;19.63;;;14.00;75.90;;;;;;5079809;28;20555;-72
2021/03/28 09:48:22;;;;;;;33.25;21.52;;;14.20;76.50;;;;;;5051739;28;20028;-72
2021/03/28 09:51:18;;;;;;;27.00;20.38;;;14.20;75.20;;;;;;5079765;28;20412;-72
2021/03/28 09:54:09;;;;;;;26.17;19.55;;;14.20;75.40;;;;;;5062063;28;20473;-73
2021/03/28 09:56:56;;;;;;;25.77;19.48;;;14.30;75.40;;;;;;5079728;28;20044;-71
2021/03/28 09:59:43;;;;;;;26.48;20.52;;;14.10;75.80;;;;;;5079732;28;20020;-73
2021/03/28 10:02:43;;;;;;;30.38;19.10;;;14.10;77.50;;;;;;5061838;28;20119;-73
2021/03/28 10:05:29;;;;;;;28.02;21.20;;;14.00;77.90;;;;;;5079383;28;20025;-71
2021/03/28 10:08:06;;;;;;;28.23;20.80;;;14.00;78.00;;;;;;5079591;28;20021;-73
2021/03/28 10:11:14;;;;;;;24.52;20.13;;;14.00;77.40;;;;;;5079377;28;20497;-71
2021/03/28 10:13:39;;;;;;;;;;;14.00;79.20;;;;;;5080309;28;20028;-71
2021/03/28 10:16:11;;;;;;;25.73;20.20;;;14.10;80.00;;;;;;5090604;28;19908;-72
2021/03/28 10:18:51;;;;;;;27.80;18.80;;;14.20;79.60;;;;;;5099526;28;20104;-71
2021/03/28 10:21:38;;;;;;;23.52;19.27;;;14.10;79.50;;;;;;5099901;28;20049;-71
2021/03/28 10:24:27;;;;;;;31.27;20.95;;;14.10;79.60;;;;;;5100183;28;20047;-72
2021/03/28 10:27:08;;;;;;;28.20;19.50;;;13.80;80.10;;;;;;5099174;28;20050;-72
2021/03/28 10:30:11;;;;;;;25.35;19.33;;;13.50;81.10;;;;;;5099426;28;20032;-72
2021/03/28 10:32:43;;;;;;;25.00;20.48;;;13.30;82.10;;;;;;5099394;28;20024;-72
2021/03/28 10:35:21;;;;;;;28.08;20.65;;;13.20;82.00;;;;;;5099176;28;20027;-72
2021/03/28 10:38:24;;;;;;;25.85;19.98;;;13.10;81.70;;;;;;5099438;28;20320;-71
2021/03/28 10:41:08;;;;;;;27.30;19.45;;;13.00;81.80;;;;;;5099235;28;20406;-72
2021/03/28 10:43:51;;;;;;;22.77;17.95;;;13.00;82.50;;;;;;5099313;28;20066;-73
2021/03/28 10:46:32;;;;;;;24.35;18.38;;;13.10;83.60;;;;;;5099042;28;20110;-72
2021/03/28 10:49:54;;;;;;;31.83;21.67;;;13.20;81.70;;;;;;5098132;28;20104;-72
2021/03/28 10:52:31;;;;;;;25.38;17.65;;;13.20;82.70;;;;;;4997312;28;20036;-72
2021/03/28 10:55:34;;;;;;;22.83;18.08;;;13.20;82.80;;;;;;4997445;28;20481;-72
2021/03/28 10:58:37;;;;;;;26.45;19.42;;;13.00;82.90;;;;;;5077758;28;20335;-72
2021/03/28 11:01:21;;;;;;;26.98;19.23;;;12.90;83.20;;;;;;5080735;28;20115;-71
2021/03/28 11:04:07;;;;;;;25.73;18.48;;;12.70;82.80;;;;;;5098908;28;20035;-72
2021/03/28 11:07:09;;;;;;;25.85;18.25;;;12.60;83.40;;;;;;5098837;28;20097;-72
2021/03/28 11:09:43;;;;;;;24.92;19.42;;;12.40;84.10;;;;;;5098701;28;20055;-72
2021/03/28 11:12:45;;;;;;;27.90;19.10;;;12.10;84.50;;;;;;5098841;28;20048;-73
2021/03/28 11:15:24;;;;;;;23.83;17.35;;;11.90;85.20;;;;;;5080412;28;20033;-73
2021/03/28 11:17:54;;;;;;;26.15;16.45;;;11.90;85.70;;;;;;5098391;28;20020;-74
2021/03/28 11:20:23;;;;;;;22.05;16.45;;;11.90;86.00;;;;;;5098719;28;20297;-73
2021/03/28 11:23:15;;;;;;;24.13;17.73;;;11.90;85.70;;;;;;5098394;28;20095;-73
2021/03/28 11:26:29;;;;;;;25.33;16.73;;;11.90;85.50;;;;;;5098221;28;20032;-74
2021/03/28 11:29:30;;;;;;;29.50;19.23;;;11.90;86.20;;;;;;5067564;28;20083;-73
2021/03/28 11:32:05;;;;;;;27.38;17.45;;;11.90;85.50;;;;;;5008834;28;20370;-72
2021/03/28 11:35:08;;;;;;;22.80;17.30;;;12.00;86.10;;;;;;5098141;28;20372;-72
2021/03/28 11:38:09;;;;;;;22.48;17.55;;;12.00;86.10;;;;;;5097903;28;20254;-72
2021/03/28 11:40:38;;;;;;;22.75;17.45;;;12.20;85.20;;;;;;5084368;28;20038;-72
2021/03/28 11:43:04;;;;;;;25.45;17.23;;;12.30;84.50;;;;;;5097775;28;20079;-72
2021/03/28 11:45:39;;;;;;;21.73;16.05;;;12.30;83.90;;;;;;5079817;28;20024;-72
2021/03/28 11:48:53;;;;;;;22.03;16.77;;;12.30;84.70;;;;;;5098089;28;20363;-72
2021/03/28 11:51:22;;;;;;;25.02;17.17;;;12.40;84.40;;;;;;5075844;28;20374;-72
2021/03/28 11:54:08;;;;;;;26.80;18.17;;;12.40;84.20;;;;;;5098145;28;20379;-72
2021/03/28 11:56:42;;;;;;;24.75;18.60;;;12.50;82.90;;;;;;5079689;28;20428;-72
2021/03/28 11:59:17;;;;;;;24.00;16.65;;;12.80;82.60;;;;;;5097901;28;20020;-72
2021/03/28 12:01:58;;;;;;;20.67;17.58;;;13.00;82.20;;;;;;5097685;28;20038;-71
2021/03/28 12:04:32;;;;;;;20.88;16.63;;;13.30;81.60;;;;;;5097603;28;20052;-72
2021/03/28 12:07:16;;;;;;;24.15;17.35;;;13.50;79.60;;;;;;5097383;28;20035;-72
2021/03/28 12:09:50;;;;;;;20.90;16.33;;;13.50;79.90;;;;;;5097517;28;20027;-72
2021/03/28 12:12:37;;;;;;;19.88;16.10;;;13.40;79.00;;;;;;5079455;28;20028;-72
2021/03/28 12:15:40;;;;;;;23.10;17.15;;;13.30;79.50;;;;;;5097322;28;20032;-71
2021/03/28 12:18:21;;;;;;;22.30;16.75;;;13.30;79.80;;;;;;5097776;28;20529;-73
2021/03/28 12:20:59;;;;;;;22.10;17.45;;;13.30;79.80;;;;;;5097526;28;20091;-73
2021/03/28 12:23:48;;;;;;;22.83;16.83;;;13.20;79.80;;;;;;5097063;28;20444;-72
2021/03/28 12:26:19;;;;;;;24.27;18.35;;;13.10;80.20;;;;;;5081502;28;20048;-72
2021/03/28 12:28:45;;;;;;;22.58;17.25;;;13.20;79.10;;;;;;5097251;28;20030;-72
2021/03/28 12:31:29;;;;;;;20.85;17.13;;;13.30;79.80;;;;;;5097277;28;20091;-72
2021/03/28 12:34:15;;;;;;;24.42;16.67;;;13.50;79.70;;;;;;5096834;28;20371;-72
2021/03/28 12:37:05;;;;;;;23.42;17.70;;;13.70;79.40;;;;;;5096978;28;20024;-72
2021/03/28 12:39:34;;;;;;;20.67;16.10;;;13.80;78.10;;;;;;5097091;28;20024;-71
2021/03/28 12:42:03;;;;;;;23.15;18.13;;;13.70;77.60;;;;;;5096941;28;20032;-72
2021/03/28 12:44:40;;;;;;;24.60;17.45;;;13.70;78.70;;;;;;5096865;28;20297;-72
2021/03/28 12:47:21;;;;;;;19.42;17.38;;;13.70;77.20;;;;;;5096937;28;20103;-73
2021/03/28 12:49:55;;;;;;;20.30;16.35;;;13.70;79.00;;;;;;5096983;28;20105;-72
2021/03/28 12:52:32;;;;;;;20.27;17.92;;;13.80;79.20;;;;;;5097082;28;20029;-72
2021/03/28 12:55:11;;;;;;;25.35;18.45;;;14.00;78.30;;;;;;5096807;28;20028;-71
2021/03/28 12:57:44;;;;;;;23.67;18.30;;;14.40;78.00;;;;;;5096816;28;20016;-72
2021/03/28 13:00:15;;;;;;;22.73;18.70;;;14.70;76.90;;;;;;5096794;28;20028;-72
2021/03/28 13:02:42;;;;;;;20.50;17.58;;;14.80;75.30;;;;;;5096801;28;20028;-71
2021/03/28 13:05:25;;;;;;;22.23;18.27;;;14.70;77.30;;;;;;5096528;28;20020;-72
2021/03/28 13:07:56;;;;;;;21.17;18.80;;;14.90;74.90;;;;;;5096656;28;20036;-73
2021/03/28 13:10:32;;;;;;;23.58;19.95;;;14.70;74.50;;;;;;5097105;28;20090;-72
2021/03/28 13:13:16;;;;;;;23.10;19.05;;;14.60;74.40;;;;;;5098571;28;20290;-72
2021/03/28 13:15:54;;;;;;;27.48;21.60;;;14.50;74.70;;;;;;5100737;28;20028;-72
2021/03/28 13:18:20;;;;;;;24.98;20.05;;;14.70;75.10;;;;;;5100922;28;20027;-72
2021/03/28 13:20:50;;;;;;;26.50;20.33;;;14.80;74.20;;;;;;5082687;28;20036;-73
2021/03/28 13:23:22;;;;;;;23.38;18.95;;;14.80;74.60;;;;;;5082760;28;20028;-71
2021/03/28 13:26:13;;;;;;;25.98;21.25;;;14.70;75.50;;;;;;5100608;28;20039;-71
2021/03/28 13:28:41;;;;;;;22.85;19.83;;;14.70;73.80;;;;;;5100732;28;20024;-71
2021/03/28 13:31:25;;;;;;;25.55;19.98;;;14.70;75.40;;;;;;5100877;28;20031;-71
2021/03/28 13:33:54;;;;;;;24.77;18.90;;;14.80;75.00;;;;;;5100555;28;20024;-72
2021/03/28 13:36:31;;;;;;;22.40;19.95;;;15.00;74.20;;;;;;5100667;28;20443;-71
2021/03/28 13:39:01;;;;;;;28.38;19.70;;;15.20;75.40;;;;;;5100317;28;20020;-72
2021/03/28 13:41:32;;;;;;;24.63;19.23;;;15.50;73.60;;;;;;5100305;28;20032;-73
2021/03/28 13:44:25;;;;;;;21.88;18.08;;;15.60;71.80;;;;;;5100167;28;20023;-71
2021/03/28 13:46:58;;;;;;;23.23;18.70;;;15.40;69.40;;;;;;5099292;28;20093;-73
2021/03/28 13:49:48;;;;;;;23.20;17.48;;;15.10;73.30;;;;;;5100239;28;20055;-73
2021/03/28 13:52:26;;;;;;;25.30;19.75;;;15.00;74.50;;;;;;5100344;28;20036;-73
2021/03/28 13:55:04;;;;;;;25.63;19.35;;;14.60;74.10;;;;;;5099936;28;20032;-71
2021/03/28 13:57:33;;;;;;;23.40;17.15;;;14.40;74.70;;;;;;5100246;28;20392;-73
2021/03/28 14:00:19;;;;;;;24.73;17.98;;;14.40;75.70;;;;;;5099801;28;20035;-73
2021/03/28 14:02:46;;;;;;;26.30;18.55;;;14.50;74.70;;;;;;5082514;28;20059;-73
2021/03/28 14:05:17;;;;;;;21.27;18.42;;;14.60;74.70;;;;;;5099617;28;20107;-73